Latest Coastal Weather Observations for Hamilton Island

IDQ60701

Issued at 10:52 am EST Friday 14 May 2021 (issued every 10 minutes, with the page automatically refreshed every 10 minutes)

About coastal observations | Map of coastal stations | Coastal observations for QLD | Marine services | Other Formats
Station Details ID: 033106 Name: HAMILTON ISLAND AIRPORT Lat: -20.37 Lon: 148.95 Height: 58.66 m
Data from the previous 72 hours. | See also: Recent months at Hamilton Island
Date/Time
EST
Wind Sea
Height
m
Swell Vis
km
Cloud Weather Temp
°C
Press
MSL
hPa
Rain since
9am
mm
Dir  Spd
kts
Gust
kts
Height
m
Period
s
Dir
14/10:30am SSE 22 26 - - - - 10 - - 23.9 1014.4 0.0
14/10:00am SSE 23 25 - - - - 10 - - 24.1 1014.5 0.0
14/09:30am SSE 22 25 - - - - 10 Partly cloudy - 24.1 1014.5 0.0
14/09:00am SE 21 25 - - - - 10 Partly cloudy - 24.0 1014.3 0.2
14/08:54am SE 22 25 - - - - 10 Partly cloudy - 23.8 1014.1 0.2
14/08:30am SSE 19 23 - - - - 10 Partly cloudy - 23.8 1013.8 0.2
14/08:00am SSE 17 21 - - - - 10 Partly cloudy - 23.6 1013.6 0.2
14/07:30am SSE 16 19 - - - - 10 Partly cloudy - 23.5 1013.4 0.2
14/07:00am SSE 17 19 - - - - 10 Partly cloudy - 23.5 1013.0 0.2
14/06:30am SE 16 19 - - - - 10 Partly cloudy - 23.3 1012.6 0.2
14/06:00am SSE 14 17 - - - - 10 Cloudy - 23.4 1012.3 0.2
14/05:30am SSE 12 16 - - - - 10 Cloudy - 23.2 1011.8 0.2
14/05:00am SSE 12 15 - - - - 10 Partly cloudy - 23.2 1011.6 0.2
14/04:30am SSE 13 16 - - - - 10 Partly cloudy - 23.4 1011.4 0.2
14/04:10am SSE 12 16 - - - - 10 Partly cloudy - 23.6 1011.4 0.2
14/04:00am SSE 10 13 - - - - 10 Partly cloudy - 23.5 1011.3 0.2
14/03:58am SSE 10 13 - - - - 10 Partly cloudy - 23.3 1011.3 0.2
14/03:30am SSE 11 14 - - - - 10 Partly cloudy - 23.5 1011.1 0.2
14/03:24am SSE 11 14 - - - - 10 Partly cloudy - 23.5 1011.1 0.2
14/03:00am SSE 9 11 - - - - 10 - - 23.4 1011.0 0.2
14/02:48am SSE 10 11 - - - - 10 Partly cloudy - 23.4 1011.0 0.2
14/02:30am S 10 13 - - - - 10 Partly cloudy - 23.4 1011.0 0.2
14/02:09am S 10 12 - - - - 10 Partly cloudy - 23.6 1011.2 0.2
14/02:00am S 10 12 - - - - 10 Partly cloudy - 23.7 1011.3 0.2
14/01:35am SSE 9 12 - - - - 10 Partly cloudy - 23.7 1011.4 0.2
14/01:30am SSE 10 13 - - - - 10 Partly cloudy - 23.8 1011.5 0.2
14/01:00am SSE 10 12 - - - - 10 Partly cloudy - 24.0 1011.7 0.2
14/12:38am SE 8 11 - - - - 10 Partly cloudy - 24.3 1011.7 0.2
14/12:30am SE 8 10 - - - - 10 Partly cloudy - 24.2 1011.7 0.2
14/12:00am SE 9 10 - - - - 10 - - 24.0 1011.7 0.2
 
Date/Time
EST
Wind Sea
Height
m
Swell Vis
km
Cloud Weather Temp
°C
Press
MSL
hPa
Rain since
9am
mm
Dir  Spd
kts
Gust
kts
Height
m
Period
s
Dir
13/11:30pm SE 9 11 - - - - 10 Partly cloudy - 24.0 1011.9 0.2
13/11:11pm SE 10 11 - - - - 10 Partly cloudy - 24.1 1012.1 0.2
13/11:00pm SE 9 11 - - - - 10 Partly cloudy - 24.0 1012.2 0.2
13/10:30pm SE 10 11 - - - - 10 - - 24.0 1012.3 0.2
13/10:00pm SE 9 11 - - - - - - - 24.1 1012.3 0.2
13/09:30pm ESE 8 11 - - - - - - - 24.2 1012.3 0.2
13/09:00pm SE 8 9 - - - - 10 - - 24.1 1012.4 0.2
13/08:38pm SE 8 10 - - - - 10 Partly cloudy - 24.1 1012.4 0.2
13/08:30pm ESE 9 11 - - - - 10 Partly cloudy - 24.1 1012.3 0.2
13/08:17pm ESE 11 12 - - - - 10 Partly cloudy - 24.2 1012.1 0.2
13/08:00pm ESE 10 11 - - - - 10 Partly cloudy - 24.1 1011.9 0.2
13/07:30pm ESE 9 10 - - - - 10 - - 24.2 1011.7 0.2
13/07:00pm ESE 9 11 - - - - 10 - - 24.2 1011.4 0.2
13/06:30pm ESE 11 13 - - - - 10 - - 24.2 1011.1 0.2
13/06:00pm ESE 13 15 - - - - 10 - - 24.3 1010.8 0.2
13/05:30pm ESE 12 14 - - - - 10 - - 24.3 1010.7 0.2
13/05:00pm ESE 9 11 - - - - 10 - - 24.5 1010.4 0.2
13/04:30pm E 8 10 - - - - 10 - - 25.0 1010.1 0.2
13/04:00pm ESE 10 11 - - - - 10 - - 25.3 1010.0 0.2
13/03:30pm ESE 8 9 - - - - 10 - - 25.7 1010.2 0.2
13/03:00pm ESE 9 11 - - - - 10 - - 25.7 1010.1 0.2
13/02:30pm SE 9 11 - - - - 10 - - 25.7 1010.6 0.2
13/02:00pm SE 11 12 - - - - 10 - - 26.1 1010.9 0.2
13/01:30pm SE 12 15 - - - - 10 - - 26.2 1011.2 0.2
13/01:00pm SE 13 15 - - - - 10 - - 25.7 1011.6 0.2
13/12:30pm SSE 15 16 - - - - 10 - - 25.4 1011.9 0.2
13/12:17pm SSE 15 18 - - - - 10 Partly cloudy - 25.6 1012.0 0.2
13/12:00pm SSE 15 17 - - - - 10 Partly cloudy - 25.4 1012.1 0.2
13/11:30am SSE 14 17 - - - - 10 Partly cloudy - 25.4 1012.4 0.2
13/11:00am SSE 13 17 - - - - 10 Partly cloudy - 25.2 1012.7 0.2
13/10:30am SSE 14 19 - - - - 10 Partly cloudy - 25.2 1013.0 0.0
13/10:28am SSE 14 19 - - - - 10 Partly cloudy - 25.1 1013.0 0.0
13/10:06am SSE 14 17 - - - - 10 Partly cloudy - 25.1 1013.2 0.0
13/10:00am SSE 14 17 - - - - 10 Partly cloudy - 25.2 1013.2 0.0
13/09:55am SSE 13 17 - - - - 10 Partly cloudy - 25.0 1013.2 0.0
13/09:37am SSE 13 15 - - - - 10 Partly cloudy - 25.1 1013.2 0.0
13/09:30am SSE 12 15 - - - - 10 Partly cloudy - 25.0 1013.3 0.0
13/09:11am SSE 13 16 - - - - 10 Partly cloudy - 24.5 1013.4 0.0
13/09:10am SSE 13 16 - - - - 10 Partly cloudy - 24.5 1013.4 0.0
13/09:00am SSE 14 17 - - - - 10 Cloudy - 24.4 1013.4 0.0
13/08:40am SSE 15 17 - - - - 10 Partly cloudy - 24.1 1013.3 0.0
13/08:39am SSE 15 17 - - - - 10 Partly cloudy - 24.0 1013.3 0.0
13/08:30am SSE 14 17 - - - - 10 Partly cloudy - 24.0 1013.3 0.0
13/08:20am SSE 14 18 - - - - 10 Partly cloudy - 24.2 1013.3 0.0
13/08:07am SSE 12 16 - - - - 10 Partly cloudy - 24.1 1013.2 0.0
13/08:00am SSE 12 16 - - - - 10 Partly cloudy - 24.0 1013.1 0.0
13/07:33am SSE 11 15 - - - - 10 Partly cloudy - 23.8 1012.8 0.0
13/07:30am SSE 11 14 - - - - 10 Partly cloudy - 23.8 1012.8 0.0
13/07:00am SSE 11 14 - - - - 10 Partly cloudy - 23.5 1012.4 0.0
13/06:30am SSE 12 15 - - - - 10 Partly cloudy - 23.3 1012.1 0.0
13/06:11am SSE 10 13 - - - - 10 Cloudy - 23.3 1011.9 0.0
13/06:00am SSE 11 15 - - - - 10 Cloudy - 23.3 1011.8 0.0
13/05:30am SSE 10 12 - - - - 10 Cloudy - 23.3 1011.5 0.0
13/05:00am SSE 10 15 - - - - 10 Cloudy - 23.3 1011.1 0.0
13/04:30am S 10 13 - - - - 10 Cloudy - 23.2 1010.9 0.0
13/04:00am S 10 13 - - - - 10 Cloudy - 23.1 1010.8 0.0
13/03:30am S 10 11 - - - - 10 Partly cloudy - 23.0 1010.9 0.0
13/03:00am S 12 15 - - - - 10 Partly cloudy - 23.2 1010.9 0.0
13/02:54am S 11 14 - - - - 10 Partly cloudy - 23.2 1011.0 0.0
13/02:46am S 11 13 - - - - 10 Partly cloudy - 23.2 1011.0 0.0
13/02:30am S 12 13 - - - - 10 Partly cloudy - 23.2 1011.2 0.0
13/02:00am S 9 11 - - - - 10 Partly cloudy - 23.5 1011.6 0.0
13/01:30am SSE 9 12 - - - - 10 Partly cloudy - 23.7 1011.8 0.0
13/01:00am S 9 11 - - - - 10 Partly cloudy - 23.8 1012.2 0.0
13/12:30am SSE 8 10 - - - - 10 Partly cloudy - 23.9 1012.4 0.0
13/12:00am SSE 7 9 - - - - 10 Cloudy - 23.8 1012.6 0.0
 
Date/Time
EST
Wind Sea
Height
m
Swell Vis
km
Cloud Weather Temp
°C
Press
MSL
hPa
Rain since
9am
mm
Dir  Spd
kts
Gust
kts
Height
m
Period
s
Dir
12/11:30pm SSE 9 10 - - - - 10 Cloudy - 23.9 1012.8 0.0
12/11:00pm SE 9 11 - - - - 10 Partly cloudy - 23.8 1012.7 0.0
12/10:30pm SE 10 12 - - - - 10 Cloudy - 23.9 1012.9 0.0
12/10:04pm SE 10 12 - - - - 10 Partly cloudy - 23.9 1013.1 0.0
12/10:00pm SE 11 12 - - - - 10 Partly cloudy - 23.9 1013.1 0.0
12/09:30pm SSE 8 10 - - - - 10 Partly cloudy - 23.8 1013.2 0.0
12/09:00pm SE 8 9 - - - - 10 - - 23.9 1013.4 0.0
12/08:30pm SE 10 11 - - - - 10 - - 23.9 1013.3 0.0
12/08:00pm SE 9 10 - - - - 10 - - 23.8 1013.2 0.0
12/07:30pm SE 10 11 - - - - 10 Partly cloudy - 24.0 1012.9 0.0
12/07:00pm SE 10 11 - - - - 10 - - 24.0 1012.7 0.0
12/06:30pm SE 9 11 - - - - 10 - - 23.9 1012.4 0.0
12/06:00pm SE 12 14 - - - - 10 - - 24.2 1012.2 0.0
12/05:30pm SE 11 13 - - - - 10 - - 24.4 1012.2 0.0
12/05:00pm ESE 9 11 - - - - 10 - - 24.9 1012.0 0.0
12/04:30pm ESE 9 11 - - - - 10 - - 25.0 1011.6 0.0
12/04:00pm SE 13 15 - - - - 10 - - 25.1 1011.5 0.0
12/03:30pm SE 15 16 - - - - 10 - - 25.1 1011.6 0.0
12/03:00pm SSE 12 15 - - - - 10 Partly cloudy - 25.1 1011.8 0.0
12/02:30pm SSE 14 16 - - - - 10 - - 25.1 1011.8 0.0
12/02:00pm SSE 13 16 - - - - 10 - - 25.6 1012.1 0.0
12/01:30pm SSE 13 15 - - - - 10 Partly cloudy - 25.5 1012.4 0.0
12/01:00pm SSE 15 16 - - - - 10 Partly cloudy - 25.6 1012.7 0.0
12/12:40pm SSE 14 16 - - - - 10 Partly cloudy - 25.4 1012.8 0.0
12/12:30pm SSE 14 17 - - - - 10 Partly cloudy - 25.6 1012.9 0.0
12/12:00pm SSE 14 17 - - - - 10 Partly cloudy - 25.1 1013.4 0.0
12/11:41am SSE 12 15 - - - - 10 Partly cloudy - 25.5 1013.8 0.0
12/11:33am SSE 12 14 - - - - 10 Partly cloudy - 25.4 1013.9 0.0
12/11:30am SSE 12 14 - - - - 10 Partly cloudy - 25.2 1014.1 0.0
12/11:00am SSE 11 14 - - - - 10 Partly cloudy - 25.0 1014.5 0.0
12/10:30am SSE 11 15 - - - - 10 Partly cloudy - 24.9 1015.0 0.0
12/10:00am SSE 12 15 - - - - 10 Partly cloudy - 25.1 1014.8 0.0
12/09:30am SSE 12 15 - - - - 10 Cloudy - 24.6 1015.0 0.0
12/09:00am SSE 12 16 - - - - 10 Cloudy - 24.2 1014.8 0.2
12/08:30am SSE 12 15 - - - - 10 Partly cloudy - 23.9 1014.6 0.2
12/08:00am SSE 11 14 - - - - 10 Partly cloudy - 23.7 1014.5 0.2
12/07:30am SSE 12 15 - - - - 10 Partly cloudy - 23.6 1014.2 0.2
12/07:00am SSE 11 14 - - - - 10 Partly cloudy - 23.5 1013.7 0.2
12/06:30am SSE 13 16 - - - - 10 Partly cloudy - 23.5 1013.4 0.2
12/06:00am SSE 12 15 - - - - 10 Cloudy - 23.4 1013.1 0.2
12/05:53am SSE 12 15 - - - - 10 Partly cloudy - 23.4 1013.1 0.2
12/05:49am SSE 12 15 - - - - 10 Partly cloudy - 23.5 1013.0 0.2
12/05:30am SSE 13 16 - - - - 10 Partly cloudy - 23.4 1012.9 0.2
12/05:28am SSE 13 15 - - - - 10 Partly cloudy - 23.4 1012.9 0.2
12/05:22am SSE 12 15 - - - - 10 Partly cloudy - 23.4 1012.9 0.2
12/05:10am SSE 11 14 - - - - 10 Partly cloudy - 23.5 1013.0 0.2
12/05:03am SSE 10 13 - - - - 10 Partly cloudy - 23.4 1013.0 0.2
12/05:00am SSE 11 14 - - - - 10 Partly cloudy - 23.4 1013.0 0.2
12/04:30am SSE 11 14 - - - - 10 Partly cloudy - 23.5 1013.0 0.2
12/04:00am SSE 12 15 - - - - 10 Partly cloudy - 23.6 1013.1 0.2
12/03:30am SSE 11 14 - - - - 10 Partly cloudy - 23.6 1013.1 0.2
12/03:00am SSE 12 15 - - - - 10 Mostly cloudy - 23.7 1012.9 0.2
12/02:30am SSE 11 14 - - - - 10 Partly cloudy - 23.6 1013.3 0.2
12/02:01am SSE 10 12 - - - - 10 Partly cloudy - 23.7 1013.3 0.2
12/02:00am SSE 10 12 - - - - 10 Partly cloudy - 23.8 1013.4 0.2
12/01:43am SSE 9 11 - - - - 10 Partly cloudy - 23.9 1013.5 0.2
12/01:30am SSE 10 11 - - - - 10 Partly cloudy - 23.9 1013.6 0.2
12/01:00am SSE 9 10 - - - - 10 Partly cloudy - 24.0 1014.0 0.2
12/12:30am SSE 8 9 - - - - 10 Partly cloudy - 24.1 1014.1 0.2
12/12:00am SSE 9 11 - - - - 10 Cloudy - 24.0 1014.1 0.2
 
Date/Time
EST
Wind Sea
Height
m
Swell Vis
km
Cloud Weather Temp
°C
Press
MSL
hPa
Rain since
9am
mm
Dir  Spd
kts
Gust
kts
Height
m
Period
s
Dir
11/11:30pm SSE 8 10 - - - - 10 Partly cloudy - 24.1 1014.3 0.2
11/11:00pm SE 9 10 - - - - 10 Partly cloudy - 24.0 1014.4 0.2
11/10:30pm SE 9 10 - - - - 10 Partly cloudy - 24.0 1014.6 0.2
11/10:00pm SE 10 12 - - - - 10 Partly cloudy - 24.0 1014.7 0.2
11/09:30pm SSE 11 13 - - - - 10 Partly cloudy - 24.1 1014.9 0.2
11/09:00pm SSE 10 12 - - - - 10 Mostly cloudy - 24.1 1014.9 0.2
11/08:34pm SSE 11 12 - - - - 10 Partly cloudy - 24.3 1014.9 0.2
11/08:30pm SSE 10 12 - - - - 10 Partly cloudy - 24.3 1014.9 0.2
11/08:00pm SE 9 10 - - - - 10 Partly cloudy - 24.4 1014.8 0.2
11/07:30pm SE 9 10 - - - - 10 Partly cloudy - 24.4 1014.6 0.2
11/07:13pm SE 9 10 - - - - 10 Partly cloudy - 24.3 1014.3 0.2
11/07:00pm SE 9 10 - - - - 10 Partly cloudy - 24.3 1014.1 0.2
11/06:30pm ESE 8 9 - - - - 10 Partly cloudy - 24.3 1013.6 0.2
11/06:00pm ESE 9 10 - - - - 10 Partly cloudy - 24.4 1013.5 0.2
11/05:30pm ESE 9 11 - - - - 10 - - 24.5 1013.4 0.2
11/05:08pm SE 9 10 - - - - 10 Partly cloudy - 24.7 1013.4 0.2
11/05:00pm ESE 9 11 - - - - 10 Partly cloudy - 24.8 1013.4 0.2
11/04:32pm ESE 11 13 - - - - 10 Partly cloudy - 25.0 1013.3 0.2
11/04:30pm ESE 11 13 - - - - 10 Partly cloudy - 24.9 1013.3 0.2
11/04:00pm ESE 11 13 - - - - 10 - - 25.4 1013.1 0.2
11/03:30pm ESE 10 13 - - - - 10 - - 25.6 1012.8 0.2
11/03:00pm SE 10 12 - - - - 10 Mostly clear - 25.8 1013.0 0.2
11/02:30pm SSE 11 13 - - - - 10 - - 25.6 1013.4 0.2
11/02:00pm SSE 10 13 - - - - 10 - - 25.9 1013.4 0.2
11/01:30pm SE 11 12 - - - - 10 - - 25.9 1013.6 0.2
11/01:00pm SE 11 13 - - - - 10 - - 26.1 1013.9 0.2
11/12:30pm SSE 10 14 - - - - 10 Partly cloudy - 25.9 1014.4 0.2
11/12:09pm SSE 12 14 - - - - 10 Partly cloudy - 25.7 1014.7 0.2
11/12:00pm SSE 12 15 - - - - 10 Cloudy Recent precip. 25.1 1014.8 0.2
11/11:30am SSE 12 16 - - - - 10 Partly cloudy - 25.3 1014.9 0.2
11/11:00am SSE 12 15 - - - - 10 Partly cloudy - 25.3 1015.3 0.0

Other formats

Comma delimited format used in spreadsheet applications
http://www.bom.gov.au/fwo/IDQ60701/IDQ60701.94368.axf

JavaScript Object Notation format (JSON) in row-major order
http://www.bom.gov.au/fwo/IDQ60701/IDQ60701.94368.json

Data quality

Most of these data are generated automatically and are frequently updated. Quality checks on data are not normally performed. It is possible for incorrect values to appear. Refer to information at About Latest Weather Observations and please check the disclaimer before using these data.